Time;durP1;ratioP1;P1;durP2;ratioP2;P2;SDS_P1;SDS_P2;PMS_P1;PMS_P2;Temp;Humidity;BMP_temperature;BMP_pressure;BME280_temperature;BME280_humidity;BME280_pressure;Samples;Min_cycle;Max_cycle;Signal;HPM_P1;HPM_P2
2021/03/25 00:00:43;;;;;;;46.65;24.77;;;6.40;99.90;;;;;;4919025;29;20579;-73
2021/03/25 00:03:14;;;;;;;49.97;26.70;;;6.40;99.90;;;;;;4918114;29;20702;-72
2021/03/25 00:05:43;;;;;;;51.72;25.45;;;6.40;99.90;;;;;;4918243;29;20237;-74
2021/03/25 00:08:14;;;;;;;43.42;25.48;;;6.40;99.90;;;;;;4918488;29;20200;-73
2021/03/25 00:10:41;;;;;;;48.67;26.77;;;6.40;99.90;;;;;;4917113;29;20652;-73
2021/03/25 00:13:10;;;;;;;49.65;25.13;;;6.40;99.90;;;;;;4916756;29;20720;-72
2021/03/25 00:15:39;;;;;;;47.78;26.33;;;6.50;99.90;;;;;;4918050;29;20201;-72
2021/03/25 00:18:07;;;;;;;35.55;22.10;;;6.60;99.90;;;;;;4918296;29;20189;-73
2021/03/25 00:20:34;;;;;;;40.85;24.38;;;6.60;99.90;;;;;;4918094;29;20201;-72
2021/03/25 00:23:02;;;;;;;44.22;24.13;;;6.60;99.90;;;;;;4918195;29;20615;-73
2021/03/25 00:25:32;;;;;;;54.75;25.98;;;6.60;99.90;;;;;;4917817;29;20771;-73
2021/03/25 00:27:59;;;;;;;51.00;28.52;;;6.60;99.90;;;;;;4917665;29;20586;-72
2021/03/25 00:30:28;;;;;;;44.67;27.38;;;6.60;99.90;;;;;;4917865;29;20190;-73
2021/03/25 00:32:58;;;;;;;43.05;26.80;;;6.60;99.90;;;;;;4917936;29;20305;-73
2021/03/25 00:35:26;;;;;;;42.17;25.30;;;6.60;99.90;;;;;;4917786;29;20218;-71
2021/03/25 00:37:53;;;;;;;41.15;24.00;;;6.60;99.90;;;;;;4918024;29;20257;-72
2021/03/25 00:40:24;;;;;;;40.40;22.52;;;6.60;99.90;;;;;;4917731;29;20178;-72
2021/03/25 00:42:51;;;;;;;47.75;27.02;;;6.60;99.90;;;;;;4917778;29;20189;-71
2021/03/25 00:45:25;;;;;;;49.28;26.10;;;6.60;99.90;;;;;;4918020;29;20232;-72
2021/03/25 00:47:52;;;;;;;50.22;27.65;;;6.60;99.90;;;;;;4918579;29;20216;-72
2021/03/25 00:50:27;;;;;;;42.10;27.58;;;6.40;99.90;;;;;;4918292;29;20189;-73
2021/03/25 00:52:54;;;;;;;41.13;25.88;;;6.40;99.90;;;;;;4918591;29;20260;-74
2021/03/25 00:55:22;;;;;;;45.10;23.67;;;6.40;99.90;;;;;;4916340;29;20312;-74
2021/03/25 00:57:50;;;;;;;48.38;27.38;;;6.40;99.90;;;;;;4917122;29;20193;-72
2021/03/25 01:00:20;;;;;;;46.45;24.27;;;6.40;99.90;;;;;;4915913;29;20205;-73
2021/03/25 01:02:48;;;;;;;39.22;21.52;;;6.40;99.90;;;;;;4917353;29;20189;-71
2021/03/25 01:05:16;;;;;;;52.55;24.48;;;6.30;99.90;;;;;;4916860;29;20256;-72
2021/03/25 01:07:44;;;;;;;43.35;25.63;;;6.30;99.90;;;;;;4916880;29;20194;-73
2021/03/25 01:10:15;;;;;;;39.35;20.52;;;6.30;99.90;;;;;;4917597;29;20288;-73
2021/03/25 01:12:43;;;;;;;40.45;23.55;;;6.20;99.90;;;;;;4917181;29;20681;-71
2021/03/25 01:15:12;;;;;;;42.42;24.48;;;6.20;99.90;;;;;;4917152;29;20213;-72
2021/03/25 01:17:42;;;;;;;47.58;24.70;;;6.20;99.90;;;;;;4917462;29;20223;-72
2021/03/25 01:20:18;;;;;;;44.25;25.17;;;6.10;99.90;;;;;;4899619;29;20194;-73
2021/03/25 01:22:45;;;;;;;41.38;23.30;;;6.10;99.90;;;;;;4916864;29;20177;-72
2021/03/25 01:25:14;;;;;;;45.38;22.17;;;6.10;99.90;;;;;;4916767;29;20692;-72
2021/03/25 01:27:41;;;;;;;50.45;25.92;;;6.10;99.90;;;;;;4917006;29;20193;-73
2021/03/25 01:30:10;;;;;;;44.15;25.20;;;6.10;99.90;;;;;;4899671;29;20197;-72
2021/03/25 01:32:37;;;;;;;44.80;23.48;;;6.00;99.90;;;;;;4915284;29;20221;-72
2021/03/25 01:35:07;;;;;;;44.72;23.58;;;6.00;99.90;;;;;;4916499;29;20222;-72
2021/03/25 01:37:34;;;;;;;45.20;26.10;;;6.00;99.90;;;;;;4916571;29;20212;-73
2021/03/25 01:40:13;;;;;;;43.92;22.52;;;6.00;99.90;;;;;;4916347;29;20261;-73
2021/03/25 01:42:41;;;;;;;46.65;23.02;;;6.00;99.90;;;;;;4916652;29;20538;-73
2021/03/25 01:45:37;;;;;;;46.05;25.15;;;6.00;99.90;;;;;;4915169;29;20217;-71
2021/03/25 01:48:07;;;;;;;42.17;20.48;;;6.00;99.90;;;;;;4909021;29;20213;-72
2021/03/25 01:50:38;;;;;;;38.75;22.42;;;5.90;99.90;;;;;;4916467;29;20201;-72
2021/03/25 01:53:45;;;;;;;44.55;24.75;;;5.90;99.90;;;;;;4900137;29;20228;-72
2021/03/25 01:56:31;;;;;;;37.60;24.23;;;5.80;99.90;;;;;;4903739;29;20265;-73
2021/03/25 01:59:26;;;;;;;52.38;23.98;;;5.80;99.90;;;;;;4899408;29;20264;-73
2021/03/25 02:01:56;;;;;;;41.15;24.65;;;5.70;99.90;;;;;;4916547;29;20185;-72
2021/03/25 02:04:47;;;;;;;44.92;23.02;;;5.70;99.90;;;;;;4915032;29;20767;-72
2021/03/25 02:07:20;;;;;;;42.13;24.92;;;5.70;99.90;;;;;;4899443;29;20229;-73
2021/03/25 02:09:54;;;;;;;49.35;22.27;;;5.70;99.90;;;;;;4899070;29;20197;-73
2021/03/25 02:12:56;;;;;;;42.55;24.10;;;5.60;99.90;;;;;;4899539;29;20684;-73
2021/03/25 02:15:35;;;;;;;46.83;24.67;;;5.60;99.90;;;;;;4899105;29;20221;-72
2021/03/25 02:18:12;;;;;;;45.22;23.92;;;5.60;99.90;;;;;;4899093;29;20672;-73
2021/03/25 02:21:19;;;;;;;40.42;20.98;;;5.60;99.90;;;;;;4915139;29;20201;-73
2021/03/25 02:24:12;;;;;;;49.42;25.00;;;5.50;99.90;;;;;;4916720;29;20217;-73
2021/03/25 02:26:44;;;;;;;40.80;25.10;;;5.40;99.90;;;;;;4899168;29;20579;-73
2021/03/25 02:29:35;;;;;;;35.55;21.13;;;5.40;99.90;;;;;;4915979;29;20199;-73
2021/03/25 02:32:08;;;;;;;46.67;25.73;;;5.30;99.90;;;;;;4913198;29;20229;-73
2021/03/25 02:34:41;;;;;;;59.35;27.15;;;5.40;99.90;;;;;;4898849;29;20220;-72
2021/03/25 02:37:12;;;;;;;51.60;29.73;;;5.40;99.90;;;;;;4914871;29;20253;-73
2021/03/25 02:39:48;;;;;;;45.88;24.63;;;5.40;99.90;;;;;;4916861;29;20186;-73
2021/03/25 02:42:37;;;;;;;40.10;22.42;;;5.40;99.90;;;;;;4899924;29;20190;-72
2021/03/25 02:45:08;;;;;;;49.20;24.80;;;5.30;99.90;;;;;;4899810;29;20220;-72
2021/03/25 02:47:40;;;;;;;48.97;24.20;;;5.30;99.90;;;;;;4916393;29;20182;-72
2021/03/25 02:50:18;;;;;;;39.80;21.77;;;5.20;99.90;;;;;;4898728;29;20222;-72
2021/03/25 02:52:50;;;;;;;53.08;28.13;;;5.20;99.90;;;;;;4898761;29;20320;-72
2021/03/25 02:55:18;;;;;;;60.05;26.13;;;5.20;99.90;;;;;;4915555;29;20209;-72
2021/03/25 02:57:58;;;;;;;51.75;24.35;;;5.20;99.90;;;;;;4915619;29;20213;-73
2021/03/25 03:00:38;;;;;;;46.78;23.63;;;5.10;99.90;;;;;;4915790;29;20193;-72
2021/03/25 03:03:10;;;;;;;45.08;22.60;;;5.00;99.90;;;;;;4898633;29;20624;-72
2021/03/25 03:05:59;;;;;;;43.05;23.52;;;5.10;99.90;;;;;;4916415;29;20184;-73
2021/03/25 03:08:34;;;;;;;50.08;27.30;;;5.10;99.90;;;;;;4919297;29;20196;-71
2021/03/25 03:11:07;;;;;;;47.00;24.20;;;5.00;99.90;;;;;;4902570;29;20201;-72
2021/03/25 03:13:39;;;;;;;53.90;29.77;;;5.00;99.90;;;;;;4919266;29;20611;-73
2021/03/25 03:16:09;;;;;;;45.95;23.50;;;4.90;99.90;;;;;;4902350;29;20193;-72
2021/03/25 03:18:45;;;;;;;55.47;28.15;;;4.80;99.90;;;;;;4902323;29;20201;-73
2021/03/25 03:21:22;;;;;;;48.22;26.73;;;4.90;99.90;;;;;;4918194;29;20613;-73
2021/03/25 03:24:20;;;;;;;43.22;23.13;;;4.90;99.90;;;;;;4911805;29;20726;-73
2021/03/25 03:27:16;;;;;;;47.40;26.45;;;4.90;99.90;;;;;;4917190;29;20284;-72
2021/03/25 03:29:46;;;;;;;51.25;27.48;;;4.90;99.90;;;;;;4901819;29;20194;-72
2021/03/25 03:32:22;;;;;;;47.40;23.17;;;4.90;99.90;;;;;;4917058;29;20218;-74
2021/03/25 03:34:58;;;;;;;53.28;24.13;;;4.90;99.90;;;;;;4918880;29;20225;-73
2021/03/25 03:37:32;;;;;;;58.67;24.10;;;4.90;99.90;;;;;;4917322;29;20193;-73
2021/03/25 03:40:17;;;;;;;38.15;23.08;;;4.80;99.90;;;;;;4901651;29;20589;-73
2021/03/25 03:42:58;;;;;;;42.70;23.75;;;4.80;99.90;;;;;;4917620;29;20194;-73
2021/03/25 03:45:26;;;;;;;47.22;25.05;;;4.80;99.90;;;;;;4918802;29;20219;-73
2021/03/25 03:48:24;;;;;;;40.72;22.52;;;4.80;99.90;;;;;;4917275;29;20189;-73
2021/03/25 03:50:55;;;;;;;49.55;26.85;;;4.90;99.90;;;;;;4918881;29;20209;-73
2021/03/25 03:53:26;;;;;;;48.80;24.00;;;4.80;99.90;;;;;;4901176;29;20217;-72
2021/03/25 03:56:01;;;;;;;44.50;24.73;;;4.80;99.90;;;;;;4901186;29;20193;-73
2021/03/25 03:58:36;;;;;;;50.42;25.35;;;4.80;99.90;;;;;;4901265;29;20201;-71
2021/03/25 04:01:08;;;;;;;43.88;25.65;;;4.80;99.90;;;;;;4901502;29;20450;-72
2021/03/25 04:03:39;;;;;;;50.75;28.00;;;4.70;99.90;;;;;;4901602;29;20276;-73
2021/03/25 04:06:33;;;;;;;41.92;23.65;;;4.70;99.90;;;;;;4917957;29;20676;-72
2021/03/25 04:09:35;;;;;;;45.83;25.63;;;4.70;99.90;;;;;;4913058;29;20416;-73
2021/03/25 04:12:24;;;;;;;44.65;24.95;;;4.80;99.90;;;;;;4900902;29;20221;-73
2021/03/25 04:14:57;;;;;;;40.45;24.52;;;4.70;99.90;;;;;;4901008;29;20731;-73
2021/03/25 04:17:39;;;;;;;47.60;24.33;;;4.70;99.90;;;;;;4900616;29;20196;-72
2021/03/25 04:20:31;;;;;;;43.47;24.77;;;4.70;99.90;;;;;;4917743;29;20260;-71
2021/03/25 04:23:14;;;;;;;41.92;25.77;;;4.60;99.90;;;;;;4917705;29;20185;-73
2021/03/25 04:25:45;;;;;;;42.13;23.00;;;4.60;99.90;;;;;;4900456;29;20201;-74
2021/03/25 04:28:22;;;;;;;46.67;26.75;;;4.50;99.90;;;;;;4917581;29;20197;-73
2021/03/25 04:30:53;;;;;;;49.30;23.95;;;4.50;99.90;;;;;;4917334;29;20192;-72
2021/03/25 04:33:22;;;;;;;47.40;27.42;;;4.50;99.90;;;;;;4917334;29;20305;-72
2021/03/25 04:35:50;;;;;;;44.72;27.17;;;4.50;99.90;;;;;;4917322;29;20190;-73
2021/03/25 04:38:22;;;;;;;42.83;24.98;;;4.50;99.90;;;;;;4917268;29;20715;-73
2021/03/25 04:40:50;;;;;;;40.55;22.92;;;4.50;99.90;;;;;;4917271;29;20201;-72
2021/03/25 04:43:38;;;;;;;49.35;25.65;;;4.50;99.90;;;;;;4917153;29;20205;-72
2021/03/25 04:46:30;;;;;;;46.03;23.00;;;4.30;99.90;;;;;;4915977;29;20192;-73
2021/03/25 04:49:02;;;;;;;40.63;22.67;;;4.30;99.90;;;;;;4902272;29;20256;-74
2021/03/25 04:51:29;;;;;;;43.70;26.75;;;4.20;99.90;;;;;;4917122;29;20669;-73
2021/03/25 04:54:12;;;;;;;45.10;27.35;;;4.30;99.90;;;;;;4916940;29;20217;-73
2021/03/25 04:56:40;;;;;;;46.28;27.48;;;4.30;99.90;;;;;;4917066;29;20178;-72
2021/03/25 04:59:07;;;;;;;53.20;24.85;;;4.30;99.90;;;;;;4917292;29;20182;-73
2021/03/25 05:01:35;;;;;;;45.60;24.75;;;4.20;99.90;;;;;;4917032;29;20660;-73
2021/03/25 05:04:04;;;;;;;48.13;24.00;;;4.20;99.90;;;;;;4916946;29;20214;-73
2021/03/25 05:06:42;;;;;;;49.70;28.77;;;4.30;99.90;;;;;;4899922;29;20680;-73
2021/03/25 05:09:13;;;;;;;52.10;25.92;;;4.30;99.90;;;;;;4917070;29;20186;-72
2021/03/25 05:11:41;;;;;;;42.55;24.25;;;4.30;99.90;;;;;;4917159;29;20600;-72
2021/03/25 05:14:16;;;;;;;55.03;28.27;;;4.30;99.90;;;;;;4916683;29;20681;-73
2021/03/25 05:16:50;;;;;;;53.17;26.77;;;4.40;99.90;;;;;;4917165;29;20609;-73
2021/03/25 05:19:29;;;;;;;42.45;22.20;;;4.50;99.90;;;;;;4916812;29;20185;-73
2021/03/25 05:22:08;;;;;;;45.83;26.02;;;4.50;99.90;;;;;;4917089;29;20708;-71
2021/03/25 05:24:43;;;;;;;40.72;23.38;;;4.60;99.90;;;;;;4899625;29;20244;-72
2021/03/25 05:27:17;;;;;;;38.97;23.65;;;4.60;99.90;;;;;;4917052;29;20188;-74
2021/03/25 05:29:46;;;;;;;44.72;23.42;;;4.70;99.90;;;;;;4916648;29;20264;-73
2021/03/25 05:32:18;;;;;;;45.88;24.00;;;4.80;99.90;;;;;;4917776;29;20185;-73
2021/03/25 05:34:48;;;;;;;43.60;23.85;;;4.80;99.90;;;;;;4917920;29;20221;-73
2021/03/25 05:37:16;;;;;;;41.30;20.95;;;4.90;99.90;;;;;;4917936;29;20675;-72
2021/03/25 05:39:43;;;;;;;37.65;21.05;;;5.60;99.90;;;;;;4916717;29;20217;-71
2021/03/25 05:42:23;;;;;;;38.67;22.88;;;6.70;99.90;;;;;;4916256;29;20186;-72
2021/03/25 05:45:21;;;;;;;49.42;22.95;;;7.50;99.90;;;;;;4916213;29;20216;-73
2021/03/25 05:48:07;;;;;;;39.72;17.77;;;8.10;99.90;;;;;;4916177;29;20208;-73
2021/03/25 05:50:45;;;;;;;45.33;19.10;;;8.60;99.90;;;;;;4916427;29;20659;-75
2021/03/25 05:53:23;;;;;;;39.85;22.20;;;9.10;99.90;;;;;;4916111;29;20197;-71
2021/03/25 05:56:09;;;;;;;37.95;21.80;;;9.60;99.90;;;;;;4916251;29;20185;-72
2021/03/25 05:58:39;;;;;;;33.78;19.00;;;9.60;99.90;;;;;;4915980;29;20178;-72
2021/03/25 06:01:42;;;;;;;38.28;22.17;;;9.50;99.90;;;;;;4915996;29;20190;-72
2021/03/25 06:04:14;;;;;;;43.90;22.05;;;9.40;99.90;;;;;;4915631;29;20217;-73
2021/03/25 06:07:18;;;;;;;33.83;22.13;;;9.30;99.90;;;;;;4915755;29;20209;-73
2021/03/25 06:09:59;;;;;;;38.72;24.42;;;9.50;99.90;;;;;;4915874;29;20178;-72
2021/03/25 06:12:42;;;;;;;38.35;21.48;;;9.80;99.90;;;;;;4915684;29;20197;-72
2021/03/25 06:15:27;;;;;;;29.13;20.08;;;9.80;99.90;;;;;;4915928;29;20620;-73
2021/03/25 06:18:05;;;;;;;43.90;21.38;;;9.60;99.90;;;;;;4915990;29;20186;-73
2021/03/25 06:20:54;;;;;;;36.67;20.85;;;9.70;99.90;;;;;;4915759;29;20255;-73
2021/03/25 06:23:33;;;;;;;35.22;20.23;;;10.30;99.90;;;;;;4898914;29;20213;-72
2021/03/25 06:26:13;;;;;;;40.60;23.15;;;11.00;99.90;;;;;;4915755;29;20184;-73
2021/03/25 06:28:44;;;;;;;37.20;20.63;;;11.20;99.90;;;;;;4915768;29;20632;-72
2021/03/25 06:31:21;;;;;;;36.60;22.53;;;11.30;91.30;;;;;;4915946;29;20761;-73
2021/03/25 06:33:55;;;;;;;31.53;20.20;;;11.40;76.20;;;;;;4915830;29;20477;-72
2021/03/25 06:36:37;;;;;;;34.03;19.27;;;11.50;92.30;;;;;;4915525;29;20437;-72
2021/03/25 06:39:06;;;;;;;36.00;21.40;;;11.60;99.90;;;;;;4896858;29;20543;-72
2021/03/25 06:41:50;;;;;;;42.23;19.17;;;11.40;71.60;;;;;;4881439;29;20445;-73
2021/03/25 06:44:25;;;;;;;35.73;21.17;;;11.20;99.90;;;;;;4900470;29;20428;-72
2021/03/25 06:47:03;;;;;;;39.50;23.37;;;11.00;99.90;;;;;;4900345;29;20412;-72
2021/03/25 06:49:37;;;;;;;41.80;25.57;;;11.00;83.90;;;;;;4900415;29;20861;-72
2021/03/25 06:52:15;;;;;;;33.73;21.30;;;10.80;75.20;;;;;;4900455;29;20889;-73
2021/03/25 06:54:42;;;;;;;39.80;23.30;;;10.80;80.90;;;;;;4900428;29;20936;-71
2021/03/25 06:57:14;;;;;;;37.90;21.90;;;11.00;90.40;;;;;;4900013;29;20602;-73
2021/03/25 06:59:44;;;;;;;36.83;21.83;;;11.10;99.90;;;;;;4900075;29;20423;-72
2021/03/25 07:02:18;;;;;;;37.75;19.52;;;11.10;86.80;;;;;;4911289;29;20420;-73
2021/03/25 07:04:48;;;;;;;30.10;17.27;;;11.00;83.00;;;;;;4919693;29;20604;-73
2021/03/25 07:07:19;;;;;;;48.23;23.27;;;11.20;84.80;;;;;;4919710;29;20497;-73
2021/03/25 07:09:46;;;;;;;34.37;20.17;;;11.50;99.90;;;;;;4919562;29;20487;-72
2021/03/25 07:12:19;;;;;;;37.30;20.97;;;11.80;99.90;;;;;;4918710;29;21011;-72
2021/03/25 07:14:49;;;;;;;34.63;21.37;;;11.80;99.90;;;;;;4919122;29;20443;-73
2021/03/25 07:17:23;;;;;;;39.97;22.73;;;11.40;99.90;;;;;;4918541;29;20441;-72
2021/03/25 07:19:51;;;;;;;24.80;17.58;;;10.90;99.90;;;;;;4919073;29;20787;-73
2021/03/25 07:22:22;;;;;;;42.40;23.57;;;11.00;99.90;;;;;;4919016;29;20538;-73
2021/03/25 07:24:51;;;;;;;42.13;23.93;;;11.20;99.90;;;;;;4918483;29;20475;-73
2021/03/25 07:27:21;;;;;;;40.17;21.77;;;11.30;99.90;;;;;;4918992;29;20388;-73
2021/03/25 07:29:59;;;;;;;36.90;19.70;;;11.50;99.90;;;;;;4918279;29;20428;-75
2021/03/25 07:32:34;;;;;;;34.83;19.87;;;11.50;99.90;;;;;;4918814;29;20487;-75
2021/03/25 07:35:15;;;;;;;39.53;22.10;;;11.70;99.90;;;;;;4918630;29;20427;-75
2021/03/25 07:37:44;;;;;;;42.20;25.37;;;11.70;99.90;;;;;;4918831;29;20885;-77
2021/03/25 07:40:30;;;;;;;37.93;20.03;;;11.30;99.90;;;;;;4919010;29;20411;-76
2021/03/25 07:43:12;;;;;;;38.53;21.40;;;11.30;99.90;;;;;;4918727;29;20414;-76
2021/03/25 07:46:08;;;;;;;38.47;20.07;;;11.40;99.90;;;;;;4918332;29;20392;-75
2021/03/25 07:48:35;;;;;;;45.87;22.87;;;11.30;99.90;;;;;;4899934;29;20438;-76
2021/03/25 07:51:14;;;;;;;35.37;21.80;;;11.00;99.90;;;;;;4899561;29;20987;-76
2021/03/25 07:53:41;;;;;;;35.10;20.70;;;11.30;99.90;;;;;;4898720;29;20975;-76
2021/03/25 07:56:11;;;;;;;34.67;18.97;;;11.70;99.90;;;;;;4899350;29;20795;-74
2021/03/25 07:58:40;;;;;;;44.87;21.60;;;11.80;99.90;;;;;;4900046;29;20794;-76
2021/03/25 08:01:14;;;;;;;34.57;22.03;;;11.70;99.90;;;;;;4899549;29;20424;-75
2021/03/25 08:03:44;;;;;;;38.23;23.43;;;11.00;99.90;;;;;;4901350;29;20992;-76
2021/03/25 08:06:18;;;;;;;46.50;23.48;;;10.50;99.90;;;;;;4918109;29;20400;-74
2021/03/25 08:08:57;;;;;;;42.60;21.95;;;10.30;99.90;;;;;;4918623;29;20177;-74
2021/03/25 08:11:24;;;;;;;36.30;21.67;;;10.60;99.90;;;;;;4919152;29;20193;-75
2021/03/25 08:13:55;;;;;;;36.20;19.13;;;11.10;99.90;;;;;;4920033;29;20443;-77
2021/03/25 08:16:26;;;;;;;38.50;23.27;;;11.70;99.90;;;;;;4921255;29;20753;-74
2021/03/25 08:19:20;;;;;;;36.30;20.63;;;12.20;99.90;;;;;;4920167;29;20473;-74
2021/03/25 08:22:00;;;;;;;37.60;22.37;;;12.40;99.90;;;;;;4919843;29;20508;-74
2021/03/25 08:24:46;;;;;;;41.07;22.73;;;12.60;99.90;;;;;;4920438;29;20469;-74
2021/03/25 08:27:42;;;;;;;38.80;23.57;;;12.70;99.90;;;;;;4918102;29;20395;-74
2021/03/25 08:30:36;;;;;;;39.10;22.40;;;12.60;99.90;;;;;;4900832;29;20802;-74
2021/03/25 08:33:15;;;;;;;37.63;21.30;;;12.60;99.90;;;;;;4917688;29;20435;-74
2021/03/25 08:35:51;;;;;;;33.47;21.30;;;12.60;99.90;;;;;;4917764;29;20388;-72
2021/03/25 08:38:32;;;;;;;40.57;23.47;;;12.80;99.90;;;;;;4917778;29;20463;-74
2021/03/25 08:41:03;;;;;;;32.00;20.50;;;12.90;99.90;;;;;;4917708;29;20508;-74
2021/03/25 08:43:35;;;;;;;32.40;19.97;;;12.90;99.90;;;;;;4901189;29;20459;-75
2021/03/25 08:46:09;;;;;;;48.00;23.97;;;13.00;99.90;;;;;;4900259;29;20438;-75
2021/03/25 08:48:41;;;;;;;42.63;22.93;;;13.30;99.90;;;;;;4917400;29;20449;-74
2021/03/25 08:51:14;;;;;;;41.47;21.87;;;13.70;99.90;;;;;;4917006;29;20975;-73
2021/03/25 08:53:45;;;;;;;38.53;23.50;;;14.20;98.60;;;;;;4900396;29;20492;-74
2021/03/25 08:56:25;;;;;;;50.20;26.57;;;14.70;94.50;;;;;;4916166;29;20783;-75
2021/03/25 08:58:56;;;;;;;42.53;24.60;;;14.60;88.80;;;;;;4917919;29;20397;-74
2021/03/25 09:01:30;;;;;;;35.17;20.90;;;14.20;85.80;;;;;;4918345;29;20385;-74
2021/03/25 09:04:01;;;;;;;43.70;23.40;;;14.10;87.10;;;;;;4917220;29;20465;-74
2021/03/25 09:06:32;;;;;;;37.30;20.60;;;14.10;86.60;;;;;;4916207;29;20465;-74
2021/03/25 09:09:07;;;;;;;41.70;23.90;;;14.20;85.10;;;;;;4899948;29;20449;-75
2021/03/25 09:11:35;;;;;;;41.33;24.63;;;14.10;77.60;;;;;;4916996;29;20392;-76
2021/03/25 09:14:02;;;;;;;49.80;26.80;;;14.00;77.30;;;;;;4917055;29;20455;-77
2021/03/25 09:16:32;;;;;;;41.50;23.47;;;13.80;77.30;;;;;;4899205;29;20419;-76
2021/03/25 09:19:02;;;;;;;41.57;23.87;;;13.70;75.80;;;;;;4916236;29;20443;-76
2021/03/25 09:21:32;;;;;;;43.10;26.93;;;13.40;74.40;;;;;;4899322;29;20421;-76
2021/03/25 09:24:05;;;;;;;32.80;21.07;;;13.40;74.80;;;;;;4916508;29;20435;-76
2021/03/25 09:26:51;;;;;;;38.90;25.43;;;13.90;80.00;;;;;;4916731;29;20528;-76
2021/03/25 09:29:22;;;;;;;43.87;24.20;;;13.80;70.90;;;;;;4897187;29;20502;-75
2021/03/25 09:32:31;;;;;;;39.90;25.60;;;13.70;71.10;;;;;;4909487;29;20408;-75
2021/03/25 09:35:01;;;;;;;38.07;23.20;;;13.80;70.40;;;;;;4854624;29;20461;-74
2021/03/25 09:37:32;;;;;;;41.40;24.50;;;14.00;70.00;;;;;;4915718;29;20405;-73
2021/03/25 09:40:35;;;;;;;42.20;25.00;;;14.20;71.10;;;;;;4899801;29;20967;-76
2021/03/25 09:43:41;;;;;;;41.90;23.50;;;14.20;60.10;;;;;;4903412;29;20935;-74
2021/03/25 09:46:39;;;;;;;38.33;22.10;;;14.20;58.60;;;;;;4839230;29;20436;-75
2021/03/25 09:49:31;;;;;;;44.30;24.77;;;14.00;59.20;;;;;;4917547;29;20452;-75
2021/03/25 09:52:25;;;;;;;43.30;24.60;;;13.80;58.00;;;;;;4917159;29;20400;-74
2021/03/25 09:55:18;;;;;;;39.27;22.47;;;13.80;58.70;;;;;;4918177;29;21015;-73
2021/03/25 09:57:52;;;;;;;43.23;24.30;;;14.00;58.50;;;;;;4917205;29;20411;-75
2021/03/25 10:00:53;;;;;;;42.03;24.67;;;14.40;58.80;;;;;;4916842;29;20917;-74
2021/03/25 10:06:02;;;;;;;39.37;23.50;;;14.70;91.30;;;;;;4948989;23;20486;-72
2021/03/25 10:08:52;;;;;;;36.10;25.10;;;14.80;99.90;;;;;;4928611;29;20403;-73
2021/03/25 10:11:50;;;;;;;33.00;20.70;;;14.70;82.10;;;;;;4935587;29;20392;-73
2021/03/25 10:14:43;;;;;;;30.70;20.70;;;14.80;1.00;;;;;;4935832;29;20458;-74
2021/03/25 10:17:30;;;;;;;33.53;21.87;;;14.90;1.00;;;;;;4937680;29;20428;-74
2021/03/25 10:19:59;;;;;;;30.23;19.20;;;15.00;13.90;;;;;;4938520;29;20422;-74
2021/03/25 10:22:26;;;;;;;35.67;23.70;;;15.10;15.70;;;;;;4937798;29;20399;-73
2021/03/25 10:24:55;;;;;;;39.00;22.00;;;15.70;15.30;;;;;;4935059;29;20452;-73
2021/03/25 10:27:35;;;;;;;33.80;23.97;;;16.10;14.20;;;;;;4934912;29;20837;-74
2021/03/25 10:30:28;;;;;;;43.90;23.73;;;16.30;11.30;;;;;;4935997;29;20423;-74
2021/03/25 10:32:58;;;;;;;35.57;24.13;;;16.30;10.70;;;;;;4934541;29;20948;-74
2021/03/25 10:35:31;;;;;;;35.23;21.57;;;15.90;10.30;;;;;;4935363;29;20559;-73
2021/03/25 10:38:03;;;;;;;42.50;22.87;;;15.70;12.60;;;;;;4936129;29;20770;-75
2021/03/25 10:40:34;;;;;;;32.77;22.03;;;15.90;11.40;;;;;;4936146;29;20383;-74
2021/03/25 10:43:03;;;;;;;41.63;23.90;;;16.20;11.10;;;;;;4938647;29;20531;-75
2021/03/25 10:45:38;;;;;;;38.97;23.23;;;15.80;9.40;;;;;;4941274;29;20419;-75
2021/03/25 10:48:20;;;;;;;37.00;23.03;;;15.60;9.90;;;;;;4944121;29;20403;-75
2021/03/25 10:50:54;;;;;;;34.70;19.80;;;15.60;12.10;;;;;;4927921;29;20436;-78
2021/03/25 10:53:24;;;;;;;36.20;22.47;;;15.80;11.80;;;;;;4945609;29;20465;-73
2021/03/25 10:56:01;;;;;;;37.97;23.07;;;15.90;11.30;;;;;;4946311;29;20444;-74
2021/03/25 10:58:32;;;;;;;37.43;20.90;;;15.70;9.60;;;;;;4945774;29;20488;-73
2021/03/25 11:01:06;;;;;;;36.13;21.60;;;16.00;12.10;;;;;;4961246;29;20457;-74
2021/03/25 11:03:37;;;;;;;33.90;22.43;;;16.10;9.70;;;;;;4962175;29;20394;-74
2021/03/25 11:06:07;;;;;;;36.37;24.57;;;15.90;9.30;;;;;;4962432;28;20422;-75
2021/03/25 11:08:37;;;;;;;41.40;22.93;;;15.60;10.10;;;;;;4950373;29;20427;-74
2021/03/25 11:11:10;;;;;;;46.70;24.73;;;15.90;10.40;;;;;;4942715;29;20468;-75
2021/03/25 11:13:40;;;;;;;39.40;23.97;;;15.90;9.30;;;;;;4946329;29;20439;-74
2021/03/25 11:16:17;;;;;;;38.67;20.37;;;15.60;8.30;;;;;;4941835;29;20855;-74
2021/03/25 11:18:49;;;;;;;33.47;21.83;;;15.60;9.70;;;;;;4928334;29;20511;-74
2021/03/25 11:21:28;;;;;;;27.77;19.17;;;15.80;9.20;;;;;;4940650;29;20411;-74
2021/03/25 11:24:13;;;;;;;34.57;19.90;;;15.70;7.70;;;;;;4921859;29;20446;-74
2021/03/25 11:26:40;;;;;;;34.57;20.47;;;15.80;7.60;;;;;;4919729;29;20747;-75
2021/03/25 11:29:08;;;;;;;40.70;22.07;;;15.90;9.70;;;;;;4920279;29;20899;-73
2021/03/25 11:31:37;;;;;;;29.70;18.10;;;16.20;7.30;;;;;;4919485;29;20790;-73
2021/03/25 11:34:05;;;;;;;32.33;19.03;;;16.40;7.60;;;;;;4919940;29;20476;-73
2021/03/25 11:36:43;;;;;;;39.67;25.27;;;16.40;6.50;;;;;;4919688;29;20389;-74
2021/03/25 11:39:26;;;;;;;29.07;18.70;;;16.10;4.40;;;;;;4920363;29;20480;-75
2021/03/25 11:41:58;;;;;;;35.77;24.63;;;15.80;5.40;;;;;;4919060;29;20519;-74
2021/03/25 11:44:41;;;;;;;38.93;23.50;;;16.00;6.60;;;;;;4920099;29;20968;-74
2021/03/25 11:47:41;;;;;;;32.77;19.17;;;16.00;6.60;;;;;;4920135;29;20528;-73
2021/03/25 11:50:38;;;;;;;28.50;17.57;;;16.30;5.20;;;;;;4888533;29;20450;-74
2021/03/25 11:53:23;;;;;;;31.60;19.40;;;16.30;4.90;;;;;;4919359;29;20918;-74
2021/03/25 11:55:55;;;;;;;24.93;18.33;;;16.40;4.60;;;;;;4918583;29;20504;-74
2021/03/25 11:58:23;;;;;;;30.23;18.23;;;16.70;3.80;;;;;;4930695;29;20491;-73
2021/03/25 12:01:06;;;;;;;31.70;20.90;;;16.90;1.90;;;;;;4937331;29;20436;-74
2021/03/25 12:03:47;;;;;;;32.00;21.73;;;16.60;2.00;;;;;;4936491;29;20760;-73
2021/03/25 12:06:20;;;;;;;26.10;18.40;;;16.40;2.10;;;;;;4937558;29;20999;-74
2021/03/25 12:09:04;;;;;;;29.63;16.23;;;16.20;3.80;;;;;;4938220;29;20439;-74
2021/03/25 12:11:34;;;;;;;39.90;21.43;;;16.20;1.40;;;;;;4937501;29;20400;-74
2021/03/25 12:14:01;;;;;;;29.60;21.10;;;15.90;2.60;;;;;;4937762;29;20480;-74
2021/03/25 12:16:45;;;;;;;36.33;21.40;;;15.80;3.20;;;;;;4937576;29;20392;-75
2021/03/25 12:19:34;;;;;;;23.60;16.77;;;16.20;3.80;;;;;;4937926;29;20415;-74
2021/03/25 12:22:13;;;;;;;27.07;17.10;;;16.40;4.40;;;;;;4937714;29;20415;-73
2021/03/25 12:24:41;;;;;;;39.73;17.30;;;16.40;3.80;;;;;;4938283;29;20448;-73
2021/03/25 12:27:19;;;;;;;33.33;22.00;;;16.80;3.30;;;;;;4936782;29;20792;-73
2021/03/25 12:29:46;;;;;;;27.27;18.43;;;16.50;2.10;;;;;;4930251;29;20428;-74
2021/03/25 12:32:14;;;;;;;29.97;19.23;;;16.00;3.00;;;;;;4917206;29;20419;-75
2021/03/25 12:35:02;;;;;;;29.87;19.37;;;15.90;4.20;;;;;;4937673;29;20479;-74
2021/03/25 12:37:30;;;;;;;28.30;19.10;;;16.10;4.80;;;;;;4955765;29;20466;-73
2021/03/25 12:39:58;;;;;;;32.67;19.90;;;15.90;4.30;;;;;;4950265;28;20811;-74
2021/03/25 12:42:26;;;;;;;27.97;18.90;;;15.90;3.00;;;;;;4935405;29;20488;-74
2021/03/25 12:44:56;;;;;;;38.40;19.97;;;15.60;2.70;;;;;;4936548;29;20452;-74
2021/03/25 12:47:23;;;;;;;34.60;21.07;;;15.50;4.40;;;;;;4936810;29;20803;-74
2021/03/25 12:49:56;;;;;;;39.73;20.67;;;15.50;4.00;;;;;;4937861;29;20909;-74
2021/03/25 12:52:24;;;;;;;30.10;20.37;;;15.70;5.10;;;;;;4937584;29;20424;-73
2021/03/25 12:54:51;;;;;;;30.57;18.20;;;15.80;4.20;;;;;;4936681;29;20485;-74
2021/03/25 12:57:26;;;;;;;28.43;18.07;;;15.90;4.30;;;;;;4937879;29;20469;-74
2021/03/25 12:59:57;;;;;;;32.20;18.17;;;15.80;4.60;;;;;;4920134;29;20444;-74
2021/03/25 13:02:25;;;;;;;29.87;20.40;;;15.60;5.10;;;;;;4937382;29;20429;-73
2021/03/25 13:04:52;;;;;;;24.87;15.80;;;15.70;4.40;;;;;;4936281;29;20519;-74
2021/03/25 13:07:19;;;;;;;33.53;18.73;;;16.00;5.40;;;;;;4936172;29;20429;-74
2021/03/25 13:09:46;;;;;;;32.67;20.93;;;16.40;3.40;;;;;;4935794;29;20415;-75
2021/03/25 13:12:23;;;;;;;32.20;17.00;;;16.20;3.50;;;;;;4935787;29;20404;-74
2021/03/25 13:14:50;;;;;;;38.63;20.87;;;16.10;4.00;;;;;;4935765;29;20472;-74
2021/03/25 13:17:17;;;;;;;29.93;19.97;;;16.00;3.30;;;;;;4935890;29;20427;-74
2021/03/25 13:20:06;;;;;;;24.33;16.37;;;16.00;3.40;;;;;;4934619;29;20407;-74